메인 페이지
METAR-TAF:

METAR-TAF

공항 :

키웨스트, 플로리다, 미국

위도: 24-34-46N, 경도: 081-41-02W, 고도: 1m

현재 날씨관측

예보는 17분 전, 22:53시(UTC)에 발표되었습니다.
8kt
온도 28°C
습도 70%
기압 1011 hPa
시정: 14.5km
맑음

METAR: KNQX 312253Z AUTO 27008KT 9SM CLR 28/22 A2985 RMK AO2 SLP105 T02830222 $

시각: 19:10 (23:10 UTC)

예보

예보 대상 시간: 31일 15시부터 01일 15시까지 (UTC)
남남서9kt
시정 10km 이상
고도 2000ft 상공 구름 조금
고도 25000ft 상공 구름 보통
31일 1900시부터 (UTC)
8kt
시정 10km 이상
고도 2000ft 상공 구름 보통
고도 5000ft 상공 구름 보통
고도 25000ft 상공 구름 많음
01일 0400시부터 (UTC)
북북서15kt, 순간 최대 풍속 20kt
시정: 1525m
고도 2000ft 상공 구름 보통
고도 5000ft 상공 구름 많음
시계 내 소나기

TAF: KNQX 3115/0115 21009KT 9999 FEW020 SCT250 QNH2986INS FM311900 26008KT 9999 SCT020 SCT050 BKN250 QNH2982INS FM010400 33015G20KT 9999 VCSH SCT020 BKN050 QNH2977INS AUTOMATED SENSOR METWATCH 3118 TIL 0111 T30/3120Z T24/0111Z COR 1525 FN20056

4,000개 이상의 공항 관측 자료 및 예보 (METAR 및 TAF 보고).

지도상에서 검색 가능한 기상관측소가 노란 점과 빨간 점으로 표시되어 있습니다.

기상관측소 명을 보려면 표시 위로 마우스를 이동하세요.

날씨 관측과 예보를 보려면 클릭하세요.

지도 변경 : 확대하려면 엑스 표시가 있는 녹색 버튼, 축소하려면 빼기 표시가 있는 녹색 버튼, 다음 페이지의 지도를 보려면 녹색 화살표를 클릭하세요.


METAR-TAF: